Time;durP1;ratioP1;P1;durP2;ratioP2;P2;SDS_P1;SDS_P2;PMS_P1;PMS_P2;Temp;Humidity;BMP_temperature;BMP_pressure;BME280_temperature;BME280_humidity;BME280_pressure;Samples;Min_cycle;Max_cycle;Signal;HPM_P1;HPM_P2
2021/05/13 00:01:34;;;;;;;7.30;6.60;;;18.80;50.50;;;;;;6160106;23;20514;-81
2021/05/13 00:04:00;;;;;;;7.50;6.80;;;18.90;50.60;;;;;;6159985;23;20162;-80
2021/05/13 00:06:27;;;;;;;7.68;6.97;;;18.90;50.60;;;;;;6135281;23;20242;-80
2021/05/13 00:08:56;;;;;;;7.85;7.05;;;18.90;50.60;;;;;;6160010;23;20147;-80
2021/05/13 00:11:32;;;;;;;8.10;7.00;;;18.90;50.60;;;;;;6135617;23;20177;-81
2021/05/13 00:13:59;;;;;;;9.20;6.82;;;18.80;50.50;;;;;;6136049;23;20152;-80
2021/05/13 00:16:30;;;;;;;8.00;7.20;;;18.80;50.50;;;;;;6134797;23;20597;-81
2021/05/13 00:18:58;;;;;;;7.82;7.03;;;18.80;50.50;;;;;;6136840;23;20514;-80
2021/05/13 00:21:24;;;;;;;7.78;6.85;;;18.90;50.60;;;;;;6159919;23;20138;-80
2021/05/13 00:23:51;;;;;;;7.60;6.80;;;18.80;50.60;;;;;;6160080;23;20163;-80
2021/05/13 00:26:24;;;;;;;7.70;6.90;;;18.80;50.60;;;;;;6135633;23;20135;-80
2021/05/13 00:28:50;;;;;;;8.27;7.47;;;18.80;50.60;;;;;;6113822;23;20151;-80
2021/05/13 00:31:15;;;;;;;9.82;7.10;;;18.80;50.50;;;;;;6110554;23;20233;-80
2021/05/13 00:33:42;;;;;;;7.60;6.90;;;18.90;50.60;;;;;;6110735;23;20150;-81
2021/05/13 00:36:09;;;;;;;8.95;7.40;;;18.80;50.50;;;;;;6186237;23;20138;-80
2021/05/13 00:38:35;;;;;;;7.78;7.07;;;18.80;50.50;;;;;;6186003;23;20138;-80
2021/05/13 00:41:01;;;;;;;9.07;7.15;;;18.90;50.70;;;;;;6186032;23;20135;-80
2021/05/13 00:43:26;;;;;;;8.38;7.00;;;18.80;50.50;;;;;;6185682;23;20501;-80
2021/05/13 00:45:52;;;;;;;8.50;7.60;;;18.90;50.60;;;;;;6159730;23;20138;-80
2021/05/13 00:48:18;;;;;;;8.82;7.10;;;18.80;50.60;;;;;;6185806;23;20158;-80
2021/05/13 00:50:44;;;;;;;7.90;6.97;;;18.80;50.70;;;;;;6159636;23;20206;-80
2021/05/13 00:53:11;;;;;;;7.70;7.00;;;18.80;50.70;;;;;;6185826;23;20181;-80
2021/05/13 00:55:37;;;;;;;7.93;6.90;;;18.80;50.80;;;;;;6135142;23;20135;-80
2021/05/13 00:58:03;;;;;;;8.93;6.95;;;18.80;50.70;;;;;;6135128;23;20135;-80
2021/05/13 01:03:13;;;;;;;8.57;7.22;;;18.80;50.70;;;;;;6163248;23;20261;-80
2021/05/13 01:05:39;;;;;;;8.43;7.38;;;18.80;50.80;;;;;;6185679;23;20198;-80
2021/05/13 01:08:05;;;;;;;8.65;7.45;;;18.80;50.80;;;;;;6159818;23;20131;-80
2021/05/13 01:10:32;;;;;;;8.80;7.70;;;18.80;50.80;;;;;;6135019;23;20181;-81
2021/05/13 01:13:02;;;;;;;8.30;7.50;;;18.80;50.80;;;;;;6134691;23;20489;-80
2021/05/13 01:15:36;;;;;;;8.43;7.10;;;18.80;50.80;;;;;;6112426;23;20238;-80
2021/05/13 01:20:29;;;;;;;8.23;7.38;;;18.80;50.80;;;;;;6159590;23;20147;-81
2021/05/13 01:22:58;;;;;;;9.55;7.28;;;18.80;50.80;;;;;;6110661;23;20175;-80
2021/05/13 01:25:24;;;;;;;9.18;7.85;;;18.80;50.80;;;;;;6110811;23;20230;-80
2021/05/13 01:27:55;;;;;;;7.80;7.10;;;18.80;50.80;;;;;;6111179;23;20139;-80
2021/05/13 01:30:20;;;;;;;9.30;7.38;;;18.80;50.80;;;;;;6137865;23;20130;-80
2021/05/13 01:32:46;;;;;;;8.15;7.28;;;18.80;50.90;;;;;;6136659;23;20273;-81
2021/05/13 01:35:12;;;;;;;8.15;7.35;;;18.80;50.90;;;;;;6112962;23;20182;-80
2021/05/13 01:37:38;;;;;;;9.57;7.95;;;18.80;50.90;;;;;;6112524;23;20150;-80
2021/05/13 01:40:04;;;;;;;8.52;7.70;;;18.80;50.90;;;;;;6137212;23;20158;-80
2021/05/13 01:42:30;;;;;;;8.35;7.50;;;18.70;50.90;;;;;;6161191;23;20134;-80
2021/05/13 01:44:56;;;;;;;8.38;7.32;;;18.70;51.00;;;;;;6187456;23;20182;-81
2021/05/13 01:47:22;;;;;;;8.95;7.13;;;18.70;50.90;;;;;;6136415;23;20151;-80
2021/05/13 01:49:49;;;;;;;10.05;7.80;;;18.80;50.90;;;;;;6136858;23;20261;-80
2021/05/13 01:52:15;;;;;;;8.18;7.38;;;18.70;51.00;;;;;;6160929;23;20158;-80
2021/05/13 01:54:41;;;;;;;9.43;7.78;;;18.70;51.00;;;;;;6136371;23;20147;-80
2021/05/13 01:57:07;;;;;;;8.27;7.47;;;18.70;51.00;;;;;;6112480;23;20147;-80
2021/05/13 01:59:33;;;;;;;8.48;7.60;;;18.70;51.10;;;;;;6112373;23;20182;-80
2021/05/13 02:01:59;;;;;;;8.60;7.80;;;18.70;51.10;;;;;;6112502;23;20151;-80
2021/05/13 02:04:25;;;;;;;8.70;7.57;;;18.70;51.10;;;;;;6112578;23;20178;-81
2021/05/13 02:06:51;;;;;;;8.80;7.55;;;18.70;51.10;;;;;;6112721;23;20222;-80
2021/05/13 02:09:17;;;;;;;8.57;7.68;;;18.70;51.10;;;;;;6136855;23;20159;-80
2021/05/13 02:11:43;;;;;;;7.72;7.03;;;18.70;51.10;;;;;;6112033;23;20583;-80
2021/05/13 02:14:08;;;;;;;9.32;8.32;;;18.70;51.20;;;;;;6112287;23;20161;-80
2021/05/13 02:16:34;;;;;;;11.90;7.93;;;18.70;51.20;;;;;;6136240;23;20189;-80
2021/05/13 02:19:00;;;;;;;8.75;7.63;;;18.70;51.20;;;;;;6111928;23;20198;-80
2021/05/13 02:21:27;;;;;;;8.75;7.85;;;18.70;51.20;;;;;;6112130;23;20166;-80
2021/05/13 02:23:53;;;;;;;8.77;7.78;;;18.70;51.20;;;;;;6160975;23;20170;-80
2021/05/13 02:26:21;;;;;;;8.80;7.90;;;18.70;51.20;;;;;;6161445;23;20153;-81
2021/05/13 02:28:47;;;;;;;9.05;8.15;;;18.60;51.20;;;;;;6136630;23;20462;-81
2021/05/13 02:31:14;;;;;;;8.65;7.75;;;18.60;51.30;;;;;;6160644;23;20222;-80
2021/05/13 02:33:40;;;;;;;8.52;7.47;;;18.60;51.30;;;;;;6112632;23;20174;-81
2021/05/13 02:36:07;;;;;;;8.93;7.85;;;18.60;51.30;;;;;;6111932;23;20563;-80
2021/05/13 02:38:33;;;;;;;9.32;8.32;;;18.70;51.40;;;;;;6112603;23;20142;-80
2021/05/13 02:40:59;;;;;;;8.35;7.43;;;18.60;51.30;;;;;;6112303;23;20169;-80
2021/05/13 02:43:25;;;;;;;8.35;7.45;;;18.60;51.30;;;;;;6111503;23;20205;-80
2021/05/13 02:45:51;;;;;;;8.13;7.32;;;18.60;51.30;;;;;;6111961;23;20578;-80
2021/05/13 02:48:17;;;;;;;8.50;7.57;;;18.60;51.30;;;;;;6111895;23;20231;-80
2021/05/13 02:50:43;;;;;;;8.48;7.65;;;18.60;51.30;;;;;;6136034;23;20135;-81
2021/05/13 02:53:09;;;;;;;8.85;7.53;;;18.70;51.30;;;;;;6111493;23;20151;-80
2021/05/13 02:55:35;;;;;;;9.43;7.88;;;18.60;51.40;;;;;;6160915;23;20135;-80
2021/05/13 02:58:01;;;;;;;8.75;7.63;;;18.60;51.30;;;;;;6135850;23;20149;-80
2021/05/13 03:03:16;;;;;;;8.85;7.55;;;18.60;51.40;;;;;;6019480;23;20194;-80
2021/05/13 03:05:41;;;;;;;9.00;7.65;;;18.60;51.60;;;;;;5990787;23;20158;-80
2021/05/13 03:08:09;;;;;;;8.27;7.43;;;18.60;51.50;;;;;;6014399;23;20154;-81
2021/05/13 03:13:07;;;;;;;9.05;7.57;;;18.60;51.50;;;;;;6038108;23;20312;-80
2021/05/13 03:15:33;;;;;;;8.77;7.80;;;18.60;51.50;;;;;;6014507;23;20205;-80
2021/05/13 03:18:00;;;;;;;10.32;8.10;;;18.60;51.50;;;;;;5967693;23;20494;-81
2021/05/13 03:20:33;;;;;;;8.85;7.60;;;18.60;51.50;;;;;;6015438;23;20560;-80
2021/05/13 03:23:00;;;;;;;9.07;8.02;;;18.60;51.60;;;;;;6014335;23;20200;-80
2021/05/13 03:25:32;;;;;;;8.98;7.93;;;18.60;51.60;;;;;;6037944;23;20151;-80
2021/05/13 03:28:10;;;;;;;9.25;7.88;;;18.60;51.60;;;;;;6038151;23;20165;-80
2021/05/13 03:30:37;;;;;;;8.40;7.43;;;18.60;51.60;;;;;;6038029;23;20157;-80
2021/05/13 03:33:04;;;;;;;8.02;7.22;;;18.60;51.60;;;;;;6037725;23;20639;-80
2021/05/13 03:35:30;;;;;;;8.63;7.43;;;18.60;51.70;;;;;;6038001;23;20143;-80
2021/05/13 03:37:56;;;;;;;9.13;7.72;;;18.60;51.60;;;;;;6037903;23;20217;-80
2021/05/13 03:40:23;;;;;;;8.63;7.35;;;18.60;51.70;;;;;;6059404;23;20229;-80
2021/05/13 03:42:49;;;;;;;8.40;7.53;;;18.60;51.70;;;;;;6160165;23;20182;-80
2021/05/13 03:45:15;;;;;;;8.80;7.90;;;18.60;51.70;;;;;;6110896;23;20183;-80
2021/05/13 03:47:40;;;;;;;8.43;7.53;;;18.60;51.70;;;;;;6160444;23;20169;-80
2021/05/13 03:50:07;;;;;;;9.25;8.10;;;18.60;51.70;;;;;;6186196;23;20142;-80
2021/05/13 03:52:33;;;;;;;8.77;7.88;;;18.60;51.70;;;;;;6159515;23;20464;-80
2021/05/13 03:54:58;;;;;;;8.20;7.40;;;18.50;51.70;;;;;;6159929;23;20134;-80
2021/05/13 03:57:24;;;;;;;8.57;7.68;;;18.50;51.80;;;;;;6159984;23;20162;-80
2021/05/13 03:59:52;;;;;;;8.55;7.72;;;18.60;51.90;;;;;;6160043;23;20637;-79
2021/05/13 04:02:30;;;;;;;8.50;7.40;;;18.60;51.80;;;;;;6186018;23;20219;-80
2021/05/13 04:04:55;;;;;;;9.10;7.50;;;18.50;51.80;;;;;;6186051;23;20589;-80
2021/05/13 04:07:21;;;;;;;9.52;7.65;;;18.60;51.70;;;;;;6186138;23;20131;-80
2021/05/13 04:09:47;;;;;;;8.65;7.53;;;18.60;51.80;;;;;;6159850;23;20559;-80
2021/05/13 04:12:14;;;;;;;9.00;7.95;;;18.60;51.70;;;;;;6111214;23;20154;-80
2021/05/13 04:14:40;;;;;;;8.05;7.25;;;18.60;51.70;;;;;;6186002;23;20135;-80
2021/05/13 04:17:08;;;;;;;8.82;7.90;;;18.60;51.90;;;;;;6185934;23;20134;-80
2021/05/13 04:19:35;;;;;;;8.70;7.38;;;18.60;52.00;;;;;;6185915;23;20131;-80
2021/05/13 04:22:02;;;;;;;8.13;7.32;;;18.60;52.00;;;;;;6159865;23;20210;-80
2021/05/13 04:24:29;;;;;;;8.50;7.60;;;18.60;52.00;;;;;;6186139;23;20175;-80
2021/05/13 04:26:55;;;;;;;8.63;7.78;;;18.60;52.00;;;;;;6186012;23;20448;-80
2021/05/13 04:29:22;;;;;;;8.52;7.63;;;18.60;52.10;;;;;;6186283;23;20130;-80
2021/05/13 04:31:48;;;;;;;8.50;7.63;;;18.60;52.20;;;;;;6185601;23;20186;-80
2021/05/13 04:34:14;;;;;;;8.50;7.60;;;18.60;52.30;;;;;;6159474;23;20487;-80
2021/05/13 04:36:41;;;;;;;8.48;7.60;;;18.60;52.30;;;;;;6159609;23;20131;-80
2021/05/13 04:39:07;;;;;;;8.98;8.07;;;18.60;52.30;;;;;;6159571;23;20158;-80
2021/05/13 04:41:34;;;;;;;8.80;7.88;;;18.60;52.30;;;;;;6159553;23;20448;-80
2021/05/13 04:44:01;;;;;;;9.07;8.18;;;18.60;52.40;;;;;;6185643;23;20607;-80
2021/05/13 04:46:30;;;;;;;9.05;7.75;;;18.60;52.30;;;;;;6186267;23;20189;-81
2021/05/13 04:49:18;;;;;;;8.65;7.75;;;18.70;52.40;;;;;;6160077;23;20569;-80
2021/05/13 04:51:45;;;;;;;9.93;8.20;;;18.60;52.40;;;;;;6163031;23;20158;-80
2021/05/13 04:54:12;;;;;;;9.75;7.90;;;18.70;52.40;;;;;;6159343;23;20570;-80
2021/05/13 04:56:39;;;;;;;9.25;7.90;;;18.70;52.40;;;;;;6159758;23;20169;-80
2021/05/13 04:59:06;;;;;;;8.10;7.30;;;18.70;52.50;;;;;;6185384;23;20139;-80
2021/05/13 05:01:32;;;;;;;9.32;8.23;;;18.70;52.50;;;;;;6185704;23;20181;-80
2021/05/13 05:03:59;;;;;;;9.05;8.07;;;18.80;52.40;;;;;;6136521;23;20178;-80
2021/05/13 05:06:27;;;;;;;8.63;7.43;;;18.80;52.40;;;;;;6161437;23;20131;-80
2021/05/13 05:08:53;;;;;;;9.30;8.18;;;18.80;52.40;;;;;;6187792;23;20221;-81
2021/05/13 05:11:21;;;;;;;8.90;8.00;;;18.90;52.50;;;;;;6137056;23;20205;-80
2021/05/13 05:13:46;;;;;;;8.35;7.53;;;18.80;52.30;;;;;;6161561;23;20166;-80
2021/05/13 05:16:13;;;;;;;9.15;7.80;;;18.80;52.50;;;;;;6188045;23;20185;-81
2021/05/13 05:18:40;;;;;;;9.57;7.90;;;18.80;52.70;;;;;;6187660;23;20447;-81
2021/05/13 05:21:06;;;;;;;9.15;8.13;;;18.90;52.70;;;;;;6185331;23;20562;-81
2021/05/13 05:23:33;;;;;;;9.43;7.93;;;18.80;52.60;;;;;;6185114;23;20166;-80
2021/05/13 05:26:00;;;;;;;10.23;8.43;;;18.90;52.60;;;;;;6158784;23;20520;-80
2021/05/13 05:28:26;;;;;;;9.48;8.52;;;18.90;52.50;;;;;;6159008;23;20565;-80
2021/05/13 05:30:52;;;;;;;8.77;7.90;;;18.90;52.60;;;;;;6158874;23;20155;-81
2021/05/13 05:33:18;;;;;;;9.80;8.77;;;18.90;52.60;;;;;;6130211;23;20221;-79
2021/05/13 05:35:45;;;;;;;9.73;8.40;;;18.90;52.50;;;;;;6157682;23;20572;-80
2021/05/13 05:38:11;;;;;;;10.05;8.48;;;18.90;52.70;;;;;;6132036;23;20143;-80
2021/05/13 05:40:37;;;;;;;10.15;8.82;;;18.90;52.60;;;;;;6157517;23;20158;-80
2021/05/13 05:43:04;;;;;;;10.27;8.05;;;18.90;52.70;;;;;;6157857;23;20600;-81
2021/05/13 05:45:31;;;;;;;9.50;8.50;;;18.90;52.70;;;;;;6107142;23;20238;-81
2021/05/13 05:47:59;;;;;;;10.23;8.60;;;18.90;52.70;;;;;;6131515;23;20467;-80
2021/05/13 05:50:29;;;;;;;10.02;8.73;;;18.90;52.70;;;;;;6157599;23;20127;-80
2021/05/13 05:52:55;;;;;;;9.70;8.70;;;18.90;52.80;;;;;;6131874;23;20131;-80
2021/05/13 05:55:25;;;;;;;9.70;8.70;;;18.90;52.90;;;;;;6131733;23;20136;-80
2021/05/13 05:57:51;;;;;;;10.10;8.68;;;18.90;53.40;;;;;;6158130;23;20211;-80
2021/05/13 06:00:17;;;;;;;10.27;9.18;;;18.90;53.30;;;;;;6157489;23;20238;-80
2021/05/13 06:02:45;;;;;;;9.93;8.88;;;19.00;53.40;;;;;;6158086;23;20171;-81
2021/05/13 06:05:11;;;;;;;10.48;8.95;;;18.90;53.20;;;;;;6157451;23;20598;-80
2021/05/13 06:07:37;;;;;;;10.52;8.95;;;18.90;53.20;;;;;;6131434;23;20171;-79
2021/05/13 06:10:05;;;;;;;10.85;9.45;;;19.00;53.20;;;;;;6131530;23;20135;-80
2021/05/13 06:12:31;;;;;;;10.77;9.65;;;19.00;53.00;;;;;;6131774;23;20491;-80
2021/05/13 06:14:58;;;;;;;10.25;9.15;;;19.00;53.10;;;;;;6130799;23;20131;-80
2021/05/13 06:17:23;;;;;;;10.07;9.07;;;19.00;53.10;;;;;;6107089;23;20151;-80
2021/05/13 06:19:49;;;;;;;10.25;9.07;;;19.00;53.00;;;;;;6157544;23;20162;-80
2021/05/13 06:22:15;;;;;;;9.60;8.60;;;18.90;53.10;;;;;;6157705;23;20508;-80
2021/05/13 06:24:41;;;;;;;9.88;8.65;;;18.90;53.10;;;;;;6157201;23;20258;-81
2021/05/13 06:27:07;;;;;;;10.23;9.13;;;18.90;53.20;;;;;;6157483;23;20167;-79
2021/05/13 06:29:32;;;;;;;10.05;8.85;;;19.00;53.10;;;;;;6157195;23;20151;-79
2021/05/13 06:31:58;;;;;;;10.38;8.95;;;19.00;53.10;;;;;;6139560;23;20182;-79
2021/05/13 06:34:24;;;;;;;12.10;9.70;;;19.00;53.00;;;;;;6161336;23;20138;-80
2021/05/13 06:36:50;;;;;;;11.00;9.20;;;19.00;53.00;;;;;;6187900;23;20466;-80
2021/05/13 06:39:16;;;;;;;10.75;9.57;;;19.00;52.90;;;;;;6136406;23;20157;-80
2021/05/13 06:41:42;;;;;;;11.18;9.48;;;19.00;52.90;;;;;;6187287;23;20462;-81
2021/05/13 06:44:09;;;;;;;10.70;9.43;;;19.00;53.00;;;;;;6160558;23;20672;-81
2021/05/13 06:46:35;;;;;;;9.95;8.82;;;19.00;52.90;;;;;;6160909;23;20218;-79
2021/05/13 06:49:01;;;;;;;10.45;8.98;;;19.00;53.00;;;;;;6136241;23;20174;-80
2021/05/13 06:51:27;;;;;;;10.65;9.45;;;19.00;52.80;;;;;;6186740;23;20186;-80
2021/05/13 06:53:53;;;;;;;11.50;9.48;;;19.00;52.90;;;;;;6186938;23;20637;-80
2021/05/13 06:56:21;;;;;;;10.80;9.05;;;19.00;52.90;;;;;;6187181;23;20131;-80
2021/05/13 06:58:47;;;;;;;11.10;9.18;;;19.00;53.00;;;;;;6136803;23;20210;-80
2021/05/13 07:01:12;;;;;;;9.75;8.68;;;19.00;53.00;;;;;;6160536;23;20169;-80
2021/05/13 07:03:39;;;;;;;11.50;9.85;;;19.00;53.10;;;;;;6186556;23;20178;-80
2021/05/13 07:06:05;;;;;;;11.40;9.75;;;19.00;53.10;;;;;;6186932;23;20185;-80
2021/05/13 07:08:33;;;;;;;11.60;9.27;;;19.00;53.10;;;;;;6186666;23;20181;-80
2021/05/13 07:11:00;;;;;;;10.25;9.07;;;19.00;53.00;;;;;;6186650;23;20138;-79
2021/05/13 07:13:27;;;;;;;11.38;9.30;;;19.10;53.00;;;;;;6186655;23;20135;-81
2021/05/13 07:15:53;;;;;;;10.07;8.98;;;19.10;53.00;;;;;;6160293;23;20143;-80
2021/05/13 07:18:20;;;;;;;11.00;9.90;;;19.10;53.00;;;;;;6160298;23;20185;-80
2021/05/13 07:20:47;;;;;;;10.40;9.20;;;19.10;53.00;;;;;;6135578;23;20147;-80
2021/05/13 07:23:14;;;;;;;10.15;9.05;;;19.10;53.00;;;;;;6186408;23;20190;-80
2021/05/13 07:25:41;;;;;;;11.07;9.65;;;19.00;53.10;;;;;;6186472;23;20214;-79
2021/05/13 07:28:07;;;;;;;11.07;9.70;;;19.10;53.00;;;;;;6186713;23;20131;-80
2021/05/13 07:30:33;;;;;;;10.65;9.55;;;19.10;53.00;;;;;;6186480;23;20147;-80
2021/05/13 07:33:01;;;;;;;9.75;8.75;;;19.10;53.00;;;;;;6186106;23;20523;-80
2021/05/13 07:35:27;;;;;;;9.98;8.90;;;19.10;53.10;;;;;;6186487;23;20637;-80
2021/05/13 07:37:53;;;;;;;10.90;9.60;;;19.10;53.00;;;;;;6185970;23;20142;-79
2021/05/13 07:40:22;;;;;;;10.52;9.48;;;19.10;53.00;;;;;;6160037;23;20135;-81
2021/05/13 07:42:48;;;;;;;10.95;9.68;;;19.10;53.00;;;;;;6186036;23;20192;-80
2021/05/13 07:45:14;;;;;;;11.45;10.18;;;19.10;52.80;;;;;;6135209;23;20175;-80
2021/05/13 07:47:40;;;;;;;11.10;9.57;;;19.20;52.80;;;;;;6186203;23;20584;-80
2021/05/13 07:50:10;;;;;;;10.27;9.18;;;19.10;52.90;;;;;;6186128;23;20159;-80
2021/05/13 07:52:36;;;;;;;11.45;9.65;;;19.10;52.90;;;;;;6160048;23;20170;-80
2021/05/13 07:55:02;;;;;;;9.93;8.93;;;19.10;52.90;;;;;;6160058;23;20131;-80
2021/05/13 07:57:28;;;;;;;10.68;9.55;;;19.10;53.00;;;;;;6186132;23;20135;-79
2021/05/13 07:59:56;;;;;;;10.35;9.25;;;19.10;52.90;;;;;;6159526;23;20459;-81
2021/05/13 08:02:21;;;;;;;10.43;9.32;;;19.10;52.90;;;;;;6135252;23;20146;-80
2021/05/13 08:04:48;;;;;;;10.20;8.88;;;19.10;53.00;;;;;;6186014;23;20162;-79
2021/05/13 08:07:20;;;;;;;10.70;9.57;;;19.10;53.00;;;;;;6186412;23;20181;-80
2021/05/13 08:09:46;;;;;;;10.48;9.38;;;19.10;52.90;;;;;;6159609;23;20486;-80
2021/05/13 08:12:12;;;;;;;11.00;9.30;;;19.20;52.90;;;;;;6186127;23;20131;-79
2021/05/13 08:14:37;;;;;;;10.93;9.48;;;19.20;52.80;;;;;;6186333;23;20226;-81
2021/05/13 08:17:04;;;;;;;10.70;9.60;;;19.20;52.80;;;;;;6186056;23;20498;-80
2021/05/13 08:19:29;;;;;;;11.13;9.60;;;19.20;52.80;;;;;;6159804;23;20127;-80
2021/05/13 08:21:55;;;;;;;10.82;9.73;;;19.20;52.90;;;;;;6135541;23;20142;-81
2021/05/13 08:24:22;;;;;;;10.68;9.13;;;19.10;52.90;;;;;;6186226;23;20173;-80
2021/05/13 08:26:47;;;;;;;10.38;9.27;;;19.10;53.00;;;;;;6185937;23;20193;-80
2021/05/13 08:29:13;;;;;;;11.40;9.50;;;19.10;52.90;;;;;;6185890;23;20579;-80
2021/05/13 08:31:38;;;;;;;10.98;8.77;;;19.20;52.90;;;;;;6185103;23;20179;-80
2021/05/13 08:34:04;;;;;;;10.82;9.73;;;19.20;52.80;;;;;;6185943;23;20139;-80
2021/05/13 08:36:30;;;;;;;10.73;9.63;;;19.20;52.80;;;;;;6186029;23;20131;-80
2021/05/13 08:38:55;;;;;;;10.25;9.15;;;19.20;52.80;;;;;;6159256;23;20571;-80
2021/05/13 08:41:21;;;;;;;10.45;9.35;;;19.20;52.80;;;;;;6185736;23;20135;-80
2021/05/13 08:43:50;;;;;;;10.13;9.07;;;19.20;52.80;;;;;;6185518;23;20480;-80
2021/05/13 08:46:23;;;;;;;11.18;9.82;;;19.20;52.80;;;;;;6159788;23;20166;-80
2021/05/13 08:48:49;;;;;;;10.80;9.63;;;19.20;52.90;;;;;;6159512;23;20497;-80
2021/05/13 08:51:15;;;;;;;10.98;9.73;;;19.20;52.80;;;;;;6159447;23;20184;-79
2021/05/13 08:53:54;;;;;;;10.93;9.82;;;19.30;52.80;;;;;;6134937;23;20139;-81
2021/05/13 08:56:20;;;;;;;10.57;9.30;;;19.20;52.80;;;;;;6185880;23;20135;-80
2021/05/13 08:58:51;;;;;;;11.05;9.68;;;19.20;52.80;;;;;;6159322;23;20522;-79
2021/05/13 09:01:20;;;;;;;10.70;9.50;;;19.20;52.90;;;;;;6186164;23;20218;-79
2021/05/13 09:03:47;;;;;;;10.50;8.82;;;19.20;52.80;;;;;;6185525;23;20166;-80
2021/05/13 09:06:32;;;;;;;10.13;9.00;;;19.30;52.80;;;;;;6185740;23;20142;-79
2021/05/13 09:09:11;;;;;;;10.27;9.18;;;19.40;52.50;;;;;;6161710;23;20165;-79
2021/05/13 09:11:57;;;;;;;10.93;9.75;;;19.40;52.40;;;;;;6186710;23;20154;-78
2021/05/13 09:14:52;;;;;;;10.02;9.00;;;19.40;52.40;;;;;;6157164;23;20628;-80
2021/05/13 09:17:26;;;;;;;9.82;8.82;;;19.40;52.30;;;;;;6159295;23;20151;-79
2021/05/13 09:19:53;;;;;;;11.02;9.55;;;19.40;52.40;;;;;;6187389;23;20135;-79
2021/05/13 09:22:24;;;;;;;10.43;9.30;;;19.40;52.40;;;;;;6187093;23;20589;-79
2021/05/13 09:25:07;;;;;;;11.57;9.63;;;19.40;52.50;;;;;;6187389;23;20166;-80
2021/05/13 09:27:41;;;;;;;10.13;9.02;;;19.40;52.50;;;;;;6186811;23;20131;-80
2021/05/13 09:30:17;;;;;;;10.77;9.57;;;19.40;52.60;;;;;;6186719;23;20190;-80
2021/05/13 09:32:47;;;;;;;11.05;9.60;;;19.40;52.60;;;;;;6186937;23;20650;-80
2021/05/13 09:35:19;;;;;;;10.82;8.98;;;19.30;52.60;;;;;;6186761;23;20139;-79
2021/05/13 09:37:49;;;;;;;9.90;8.68;;;19.30;52.60;;;;;;6187029;23;20135;-80
2021/05/13 09:40:35;;;;;;;10.80;9.40;;;19.40;52.60;;;;;;6187096;23;20194;-79
2021/05/13 09:43:19;;;;;;;10.57;9.13;;;19.30;52.60;;;;;;6187894;23;20265;-79
2021/05/13 09:45:51;;;;;;;10.20;8.80;;;19.30;52.60;;;;;;6163026;23;20135;-79
2021/05/13 09:48:41;;;;;;;10.93;8.82;;;19.30;52.60;;;;;;6188808;23;20466;-79
2021/05/13 09:51:25;;;;;;;11.95;9.95;;;19.40;52.60;;;;;;6190216;23;20268;-80
2021/05/13 09:54:04;;;;;;;10.55;9.07;;;19.30;52.60;;;;;;6163732;23;20237;-79
2021/05/13 09:56:31;;;;;;;10.70;9.45;;;19.30;52.60;;;;;;6189182;23;20207;-80
2021/05/13 09:58:57;;;;;;;10.30;9.13;;;19.30;52.70;;;;;;6161891;23;20162;-80
2021/05/13 10:01:35;;;;;;;12.73;9.38;;;19.20;52.80;;;;;;6188390;23;20135;-80
2021/05/13 10:04:02;;;;;;;10.98;9.40;;;19.20;52.70;;;;;;6188433;23;20174;-80
2021/05/13 10:06:28;;;;;;;11.27;8.82;;;19.30;52.40;;;;;;6187737;23;20150;-80
2021/05/13 10:08:54;;;;;;;10.75;9.38;;;19.30;52.50;;;;;;6187258;23;20586;-80
2021/05/13 10:11:20;;;;;;;10.65;9.55;;;19.30;52.60;;;;;;6161025;23;20574;-79
2021/05/13 10:13:46;;;;;;;11.50;9.30;;;19.20;52.70;;;;;;6160855;23;20142;-80
2021/05/13 10:16:13;;;;;;;12.00;9.52;;;19.10;53.40;;;;;;6187174;23;20131;-79
2021/05/13 10:18:47;;;;;;;11.13;9.27;;;19.10;52.90;;;;;;6160815;23;20135;-79
2021/05/13 10:21:14;;;;;;;11.57;9.35;;;19.10;53.20;;;;;;6187111;23;20138;-79
2021/05/13 10:23:44;;;;;;;11.30;9.25;;;19.00;53.20;;;;;;6187071;23;20217;-80
2021/05/13 10:26:37;;;;;;;9.93;8.65;;;19.00;53.20;;;;;;6187058;23;20159;-79
2021/05/13 10:29:21;;;;;;;12.20;9.90;;;19.00;53.30;;;;;;6187029;23;20206;-80
2021/05/13 10:32:21;;;;;;;10.07;8.93;;;19.00;53.30;;;;;;6186831;23;20190;-80
2021/05/13 10:34:52;;;;;;;10.85;9.18;;;19.10;53.00;;;;;;6067158;23;20162;-80
2021/05/13 10:37:31;;;;;;;8.95;8.00;;;19.10;52.70;;;;;;6043189;23;20205;-80
2021/05/13 10:40:08;;;;;;;10.35;9.07;;;19.20;52.50;;;;;;6067230;23;20153;-80
2021/05/13 10:42:37;;;;;;;9.23;8.32;;;19.30;52.30;;;;;;6066973;23;20153;-80
2021/05/13 10:45:30;;;;;;;8.95;8.02;;;19.40;52.20;;;;;;6043209;23;20706;-79
2021/05/13 10:48:27;;;;;;;9.73;8.73;;;19.40;52.10;;;;;;6060701;23;20149;-82
2021/05/13 10:51:03;;;;;;;9.70;8.65;;;19.40;52.00;;;;;;6067005;23;20232;-80
2021/05/13 10:53:39;;;;;;;9.85;8.85;;;19.40;52.60;;;;;;6043439;23;20581;-80
2021/05/13 10:56:25;;;;;;;11.13;8.90;;;19.40;52.00;;;;;;6067082;23;20588;-80
2021/05/13 10:59:02;;;;;;;9.85;8.80;;;19.40;52.10;;;;;;6067031;23;20159;-80
2021/05/13 11:01:47;;;;;;;10.32;8.80;;;19.40;51.90;;;;;;6066672;23;20712;-80
2021/05/13 11:04:25;;;;;;;12.88;9.80;;;19.50;52.10;;;;;;6067094;23;20521;-80
2021/05/13 11:06:55;;;;;;;9.18;8.23;;;19.40;52.00;;;;;;6067173;23;20145;-79
2021/05/13 11:09:39;;;;;;;10.02;8.90;;;19.50;51.90;;;;;;6066960;23;20649;-80
2021/05/13 11:12:19;;;;;;;9.82;8.63;;;19.50;51.90;;;;;;6148059;23;20464;-79
2021/05/13 11:15:12;;;;;;;10.50;8.68;;;19.50;51.80;;;;;;6186975;23;20143;-79
2021/05/13 11:17:50;;;;;;;10.85;9.27;;;19.40;51.90;;;;;;6186764;23;20185;-81
2021/05/13 11:20:29;;;;;;;11.40;9.30;;;19.50;51.90;;;;;;6186756;23;20139;-80
2021/05/13 11:23:00;;;;;;;11.25;9.55;;;19.50;51.80;;;;;;6186341;23;20162;-79
2021/05/13 11:25:33;;;;;;;10.35;9.20;;;19.50;51.80;;;;;;6186664;23;20574;-83
2021/05/13 11:28:00;;;;;;;11.98;9.27;;;19.50;51.70;;;;;;6186459;23;20571;-79
2021/05/13 11:30:29;;;;;;;10.00;9.00;;;19.50;51.80;;;;;;6160274;23;20513;-81
2021/05/13 11:32:55;;;;;;;10.82;9.50;;;19.50;51.90;;;;;;6186385;23;20614;-80
2021/05/13 11:35:22;;;;;;;10.60;9.45;;;19.50;51.90;;;;;;6135485;23;20155;-80
2021/05/13 11:37:54;;;;;;;10.05;8.90;;;19.50;51.90;;;;;;6160051;23;20415;-80
2021/05/13 11:40:30;;;;;;;11.35;9.45;;;19.50;51.90;;;;;;6186327;23;20134;-80
2021/05/13 11:43:14;;;;;;;11.27;9.65;;;19.40;51.80;;;;;;6186266;23;20286;-80
2021/05/13 11:45:41;;;;;;;10.75;9.48;;;19.40;51.90;;;;;;6186293;23;20139;-81
2021/05/13 11:48:19;;;;;;;10.30;9.20;;;19.40;51.80;;;;;;6186184;23;20143;-81
2021/05/13 11:50:46;;;;;;;11.43;10.23;;;19.40;51.80;;;;;;6185903;23;20166;-80
2021/05/13 11:53:32;;;;;;;10.43;9.32;;;19.50;51.80;;;;;;6159726;23;20522;-80
2021/05/13 11:55:59;;;;;;;11.13;9.85;;;19.50;51.90;;;;;;6183418;23;20214;-80
2021/05/13 11:58:42;;;;;;;12.57;9.70;;;19.40;52.00;;;;;;6159738;23;20147;-79
2021/05/13 12:01:21;;;;;;;11.27;10.00;;;19.40;52.00;;;;;;6186555;23;20213;-79
2021/05/13 12:03:49;;;;;;;10.70;9.57;;;19.40;52.10;;;;;;6185932;23;20162;-79
2021/05/13 12:06:16;;;;;;;10.50;9.40;;;19.40;52.10;;;;;;6160175;23;20145;-80
2021/05/13 12:08:42;;;;;;;12.18;9.30;;;19.40;51.90;;;;;;6186138;23;20527;-81
2021/05/13 12:11:25;;;;;;;12.00;9.98;;;19.40;52.00;;;;;;6186228;23;20139;-80
2021/05/13 12:13:55;;;;;;;11.50;10.10;;;19.40;52.10;;;;;;6185996;23;20139;-80
2021/05/13 12:16:23;;;;;;;11.52;10.32;;;19.40;51.90;;;;;;6186571;23;20159;-80
2021/05/13 12:19:10;;;;;;;12.00;10.02;;;19.40;52.10;;;;;;6159999;23;20219;-80
2021/05/13 12:21:37;;;;;;;10.30;9.23;;;19.40;52.10;;;;;;6182989;23;20135;-80
2021/05/13 12:24:04;;;;;;;11.80;9.88;;;19.40;52.10;;;;;;6159750;23;20297;-81
2021/05/13 12:26:32;;;;;;;11.40;9.95;;;19.40;52.20;;;;;;6159946;23;20142;-79
2021/05/13 12:28:59;;;;;;;11.07;9.88;;;19.40;52.10;;;;;;6159723;23;20178;-80
2021/05/13 12:31:36;;;;;;;11.80;10.25;;;19.40;52.30;;;;;;6134763;23;20161;-80
2021/05/13 12:34:04;;;;;;;10.88;9.65;;;19.30;52.20;;;;;;6160739;23;20201;-80
2021/05/13 12:36:35;;;;;;;10.23;9.18;;;19.30;52.20;;;;;;6185879;23;20131;-79
2021/05/13 12:39:01;;;;;;;11.25;9.88;;;19.40;52.30;;;;;;6185954;23;20556;-79
2021/05/13 12:41:28;;;;;;;11.18;9.80;;;19.40;52.30;;;;;;6159691;23;20131;-79
2021/05/13 12:44:27;;;;;;;11.30;9.70;;;19.40;52.30;;;;;;6185952;23;20257;-79
2021/05/13 12:46:54;;;;;;;10.60;9.48;;;19.40;52.30;;;;;;6184217;23;20170;-79
2021/05/13 12:49:40;;;;;;;11.65;10.18;;;19.40;52.20;;;;;;6185935;23;20127;-80
2021/05/13 12:52:06;;;;;;;11.73;10.35;;;19.40;52.10;;;;;;6183100;23;20142;-79
2021/05/13 12:54:40;;;;;;;10.70;9.60;;;19.40;52.10;;;;;;6159469;23;20526;-79
2021/05/13 12:57:19;;;;;;;11.57;9.35;;;19.40;52.20;;;;;;6160224;23;20559;-80
2021/05/13 12:59:51;;;;;;;11.63;10.07;;;19.40;52.10;;;;;;6159559;23;20238;-80
2021/05/13 13:02:28;;;;;;;10.98;9.77;;;19.40;52.10;;;;;;6185633;23;20134;-80